sensor_id;sensor_type;location;lat;lon;timestamp;pressure;altitude;pressure_sealevel;temperature;humidity
5350;BME280;2697;42.144;24.794;2023-02-13T00:02:12;153669.13;;;4.28;91.28
5350;BME280;2697;42.144;24.794;2023-02-13T00:04:38;153671.78;;;4.29;90.62
5350;BME280;2697;42.144;24.794;2023-02-13T00:07:03;153678.31;;;4.32;90.60
5350;BME280;2697;42.144;24.794;2023-02-13T00:09:30;153658.66;;;4.24;91.76
5350;BME280;2697;42.144;24.794;2023-02-13T00:11:55;153646.91;;;4.19;92.21
5350;BME280;2697;42.144;24.794;2023-02-13T00:14:21;153633.78;;;4.14;92.55
5350;BME280;2697;42.144;24.794;2023-02-13T00:16:46;153636.38;;;4.15;92.25
5350;BME280;2697;42.144;24.794;2023-02-13T00:19:11;153646.91;;;4.19;92.35
5350;BME280;2697;42.144;24.794;2023-02-13T00:21:37;153635.06;;;4.15;92.90
5350;BME280;2697;42.144;24.794;2023-02-13T00:24:02;153648.19;;;4.20;93.36
5350;BME280;2697;42.144;24.794;2023-02-13T00:26:28;153659.97;;;4.24;92.67
5350;BME280;2697;42.144;24.794;2023-02-13T00:28:55;153667.81;;;4.27;91.85
5350;BME280;2697;42.144;24.794;2023-02-13T00:31:21;153662.56;;;4.25;92.22
5350;BME280;2697;42.144;24.794;2023-02-13T00:33:46;153665.19;;;4.26;92.60
5350;BME280;2697;42.144;24.794;2023-02-13T00:36:14;153669.13;;;4.28;91.81
5350;BME280;2697;42.144;24.794;2023-02-13T00:38:40;153658.66;;;4.24;92.77
5350;BME280;2697;42.144;24.794;2023-02-13T00:41:07;153650.81;;;4.21;92.62
5350;BME280;2697;42.144;24.794;2023-02-13T00:43:32;153652.13;;;4.21;92.64
5350;BME280;2697;42.144;24.794;2023-02-13T00:45:58;153654.75;;;4.22;93.19
5350;BME280;2697;42.144;24.794;2023-02-13T00:48:25;153658.66;;;4.24;92.71
5350;BME280;2697;42.144;24.794;2023-02-13T00:50:50;153663.88;;;4.26;92.26
5350;BME280;2697;42.144;24.794;2023-02-13T00:53:17;153659.97;;;4.24;92.22
5350;BME280;2697;42.144;24.794;2023-02-13T00:55:43;153670.47;;;4.28;92.37
5350;BME280;2697;42.144;24.794;2023-02-13T00:58:08;153669.13;;;4.28;92.30
5350;BME280;2697;42.144;24.794;2023-02-13T01:00:33;153657.34;;;4.23;92.97
5350;BME280;2697;42.144;24.794;2023-02-13T01:02:59;153670.47;;;4.28;92.39
5350;BME280;2697;42.144;24.794;2023-02-13T01:05:24;153653.44;;;4.22;92.67
5350;BME280;2697;42.144;24.794;2023-02-13T01:07:52;153623.31;;;4.10;93.54
5350;BME280;2697;42.144;24.794;2023-02-13T01:10:17;153632.47;;;4.14;92.91
5350;BME280;2697;42.144;24.794;2023-02-13T01:12:42;153618.03;;;4.08;92.98
5350;BME280;2697;42.144;24.794;2023-02-13T01:15:08;153623.31;;;4.10;92.96
5350;BME280;2697;42.144;24.794;2023-02-13T01:17:33;153644.22;;;4.18;92.69
5350;BME280;2697;42.144;24.794;2023-02-13T01:19:59;153677.00;;;4.31;91.40
5350;BME280;2697;42.144;24.794;2023-02-13T01:22:24;153654.75;;;4.22;91.83
5350;BME280;2697;42.144;24.794;2023-02-13T01:24:50;153641.63;;;4.17;91.71
5350;BME280;2697;42.144;24.794;2023-02-13T01:27:15;153642.94;;;4.18;92.24
5350;BME280;2697;42.144;24.794;2023-02-13T01:29:40;153610.19;;;4.05;92.90
5350;BME280;2697;42.144;24.794;2023-02-13T01:32:06;153599.75;;;4.01;94.30
5350;BME280;2697;42.144;24.794;2023-02-13T01:34:32;153552.59;;;3.83;94.65
5350;BME280;2697;42.144;24.794;2023-02-13T01:36:58;153517.22;;;3.69;96.49
5350;BME280;2697;42.144;24.794;2023-02-13T01:39:24;153485.81;;;3.57;97.17
5350;BME280;2697;42.144;24.794;2023-02-13T01:41:49;153466.19;;;3.49;97.83
5350;BME280;2697;42.144;24.794;2023-02-13T01:52:37;153281.66;;;2.77;100.00
5350;BME280;2697;42.144;24.794;2023-02-13T01:55:04;153241.13;;;2.62;100.00
5350;BME280;2697;42.144;24.794;2023-02-13T01:57:32;153248.97;;;2.65;100.00
5350;BME280;2697;42.144;24.794;2023-02-13T02:00:02;153199.25;;;2.45;100.00
5350;BME280;2697;42.144;24.794;2023-02-13T02:02:30;153213.63;;;2.51;100.00
5350;BME280;2697;42.144;24.794;2023-02-13T02:05:00;153186.16;;;2.40;100.00
5350;BME280;2697;42.144;24.794;2023-02-13T02:07:27;153141.69;;;2.23;100.00
5350;BME280;2697;42.144;24.794;2023-02-13T02:09:55;153123.44;;;2.16;100.00
5350;BME280;2697;42.144;24.794;2023-02-13T02:12:27;153112.94;;;2.12;100.00
5350;BME280;2697;42.144;24.794;2023-02-13T02:14:57;153092.00;;;2.04;100.00
5350;BME280;2697;42.144;24.794;2023-02-13T02:17:25;153081.56;;;1.99;100.00
5350;BME280;2697;42.144;24.794;2023-02-13T02:36:52;152896.00;;;1.27;100.00
5350;BME280;2697;42.144;24.794;2023-02-13T02:39:29;152932.59;;;1.41;100.00
5350;BME280;2697;42.144;24.794;2023-02-13T02:42:27;152982.25;;;1.61;100.00
5350;BME280;2697;42.144;24.794;2023-02-13T02:47:34;152924.72;;;1.38;100.00
5350;BME280;2697;42.144;24.794;2023-02-13T02:50:33;152903.84;;;1.30;100.00
5350;BME280;2697;42.144;24.794;2023-02-13T02:59:07;152859.44;;;1.13;100.00
5350;BME280;2697;42.144;24.794;2023-02-13T03:01:54;152792.81;;;0.87;100.00
5350;BME280;2697;42.144;24.794;2023-02-13T03:04:42;152794.13;;;0.88;100.00
5350;BME280;2697;42.144;24.794;2023-02-13T03:07:27;152728.81;;;0.62;100.00
5350;BME280;2697;42.144;24.794;2023-02-13T03:09:55;152710.53;;;0.55;100.00
5350;BME280;2697;42.144;24.794;2023-02-13T03:12:47;152705.31;;;0.53;100.00
5350;BME280;2697;42.144;24.794;2023-02-13T03:15:35;152668.78;;;0.39;100.00
5350;BME280;2697;42.144;24.794;2023-02-13T03:18:20;152616.53;;;0.18;100.00
5350;BME280;2697;42.144;24.794;2023-02-13T03:21:11;152598.28;;;0.11;100.00
5350;BME280;2697;42.144;24.794;2023-02-13T03:29:25;152540.84;;;-0.11;100.00
5350;BME280;2697;42.144;24.794;2023-02-13T03:32:30;152560.44;;;-0.04;100.00
5350;BME280;2697;42.144;24.794;2023-02-13T03:38:21;152559.13;;;-0.04;100.00
5350;BME280;2697;42.144;24.794;2023-02-13T03:41:03;152564.31;;;-0.02;100.00
5350;BME280;2697;42.144;24.794;2023-02-13T03:46:14;152542.16;;;-0.11;100.00
5350;BME280;2697;42.144;24.794;2023-02-13T03:48:41;152519.97;;;-0.19;100.00
5350;BME280;2697;42.144;24.794;2023-02-13T03:51:31;152535.63;;;-0.13;100.00
5350;BME280;2697;42.144;24.794;2023-02-13T03:54:00;152540.84;;;-0.11;100.00
5350;BME280;2697;42.144;24.794;2023-02-13T03:56:29;152525.22;;;-0.17;100.00
5350;BME280;2697;42.144;24.794;2023-02-13T03:59:35;152525.22;;;-0.17;100.00
5350;BME280;2697;42.144;24.794;2023-02-13T04:02:16;152519.97;;;-0.19;100.00
5350;BME280;2697;42.144;24.794;2023-02-13T04:04:58;152527.81;;;-0.16;100.00
5350;BME280;2697;42.144;24.794;2023-02-13T04:07:28;152530.44;;;-0.15;100.00
5350;BME280;2697;42.144;24.794;2023-02-13T04:10:00;152525.22;;;-0.17;100.00
5350;BME280;2697;42.144;24.794;2023-02-13T04:15:25;152530.44;;;-0.15;100.00
5350;BME280;2697;42.144;24.794;2023-02-13T04:20:27;152501.72;;;-0.26;100.00
5350;BME280;2697;42.144;24.794;2023-02-13T04:22:53;152499.13;;;-0.27;100.00
5350;BME280;2697;42.144;24.794;2023-02-13T04:25:19;152462.56;;;-0.42;100.00
5350;BME280;2697;42.144;24.794;2023-02-13T04:27:44;152503.03;;;-0.26;100.00
5350;BME280;2697;42.144;24.794;2023-02-13T04:30:11;152500.44;;;-0.27;100.00
5350;BME280;2697;42.144;24.794;2023-02-13T04:32:37;152538.22;;;-0.12;100.00
5350;BME280;2697;42.144;24.794;2023-02-13T04:35:03;152516.06;;;-0.21;100.00
5350;BME280;2697;42.144;24.794;2023-02-13T04:37:28;152506.94;;;-0.24;100.00
5350;BME280;2697;42.144;24.794;2023-02-13T04:39:53;152429.97;;;-0.54;100.00
5350;BME280;2697;42.144;24.794;2023-02-13T04:42:19;152548.72;;;-0.08;100.00
5350;BME280;2697;42.144;24.794;2023-02-13T04:44:44;152535.63;;;-0.13;100.00
5350;BME280;2697;42.144;24.794;2023-02-13T04:47:10;152533.03;;;-0.14;100.00
5350;BME280;2697;42.144;24.794;2023-02-13T04:49:35;152548.72;;;-0.08;100.00
5350;BME280;2697;42.144;24.794;2023-02-13T04:52:00;152580.00;;;0.04;100.00
5350;BME280;2697;42.144;24.794;2023-02-13T04:54:26;152500.44;;;-0.27;100.00
5350;BME280;2697;42.144;24.794;2023-02-13T04:56:51;152491.25;;;-0.31;100.00
5350;BME280;2697;42.144;24.794;2023-02-13T04:59:17;152486.06;;;-0.33;100.00
5350;BME280;2697;42.144;24.794;2023-02-13T05:01:43;152508.25;;;-0.24;100.00
5350;BME280;2697;42.144;24.794;2023-02-13T05:04:09;152512.16;;;-0.22;100.00
5350;BME280;2697;42.144;24.794;2023-02-13T05:06:35;152452.16;;;-0.46;100.00
5350;BME280;2697;42.144;24.794;2023-02-13T05:09:02;152376.47;;;-0.75;100.00
5350;BME280;2697;42.144;24.794;2023-02-13T05:11:27;152350.41;;;-0.86;100.00
5350;BME280;2697;42.144;24.794;2023-02-13T05:13:53;152334.78;;;-0.92;100.00
5350;BME280;2697;42.144;24.794;2023-02-13T05:16:18;152278.69;;;-1.13;100.00
5350;BME280;2697;42.144;24.794;2023-02-13T05:18:43;152259.13;;;-1.21;100.00
5350;BME280;2697;42.144;24.794;2023-02-13T05:21:09;144070.13;;;-1.19;100.00
5350;BME280;2697;42.144;24.794;2023-02-13T05:23:52;128076.72;;;-1.13;100.00
5350;BME280;2697;42.144;24.794;2023-02-13T05:26:18;117903.09;;;-1.08;100.00
5350;BME280;2697;42.144;24.794;2023-02-13T05:28:43;114501.75;;;-1.14;100.00
5350;BME280;2697;42.144;24.794;2023-02-13T05:31:29;111126.72;;;-1.08;100.00
5350;BME280;2697;42.144;24.794;2023-02-13T05:33:54;107770.34;;;-0.93;100.00
5350;BME280;2697;42.144;24.794;2023-02-13T05:36:20;113540.78;;;-0.85;100.00
5350;BME280;2697;42.144;24.794;2023-02-13T05:38:45;118627.94;;;-0.84;100.00
5350;BME280;2697;42.144;24.794;2023-02-13T05:41:10;120335.03;;;-0.79;100.00
5350;BME280;2697;42.144;24.794;2023-02-13T05:43:37;121701.41;;;-0.75;100.00
5350;BME280;2697;42.144;24.794;2023-02-13T05:46:05;128202.66;;;-0.55;100.00
5350;BME280;2697;42.144;24.794;2023-02-13T05:48:30;124457.34;;;-0.57;100.00
5350;BME280;2697;42.144;24.794;2023-02-13T05:50:56;111918.41;;;-0.47;100.00
5350;BME280;2697;42.144;24.794;2023-02-13T05:53:21;117049.72;;;-0.24;100.00
5350;BME280;2697;42.144;24.794;2023-02-13T05:55:47;137846.69;;;-0.09;100.00
5350;BME280;2697;42.144;24.794;2023-02-13T05:58:12;152519.97;;;-0.19;100.00
5350;BME280;2697;42.144;24.794;2023-02-13T06:00:37;152533.03;;;-0.14;100.00
5350;BME280;2697;42.144;24.794;2023-02-13T06:03:03;152582.63;;;0.05;100.00
5350;BME280;2697;42.144;24.794;2023-02-13T06:05:28;152606.09;;;0.14;100.00
5350;BME280;2697;42.144;24.794;2023-02-13T06:07:54;152611.31;;;0.16;100.00
5350;BME280;2697;42.144;24.794;2023-02-13T06:10:19;152607.41;;;0.15;100.00
5350;BME280;2697;42.144;24.794;2023-02-13T06:12:44;152598.28;;;0.11;100.00
5350;BME280;2697;42.144;24.794;2023-02-13T06:15:10;152606.09;;;0.14;100.00
5350;BME280;2697;42.144;24.794;2023-02-13T06:17:35;152598.28;;;0.11;100.00
5350;BME280;2697;42.144;24.794;2023-02-13T06:20:00;152603.50;;;0.13;100.00
5350;BME280;2697;42.144;24.794;2023-02-13T06:22:26;152600.91;;;0.12;100.00
5350;BME280;2697;42.144;24.794;2023-02-13T06:24:51;152581.31;;;0.05;100.00
5350;BME280;2697;42.144;24.794;2023-02-13T06:27:16;152684.41;;;0.45;100.00
5350;BME280;2697;42.144;24.794;2023-02-13T06:29:42;152705.31;;;0.53;100.00
5350;BME280;2697;42.144;24.794;2023-02-13T06:32:07;152677.91;;;0.42;100.00
5350;BME280;2697;42.144;24.794;2023-02-13T06:34:32;152696.19;;;0.49;100.00
5350;BME280;2697;42.144;24.794;2023-02-13T06:36:58;152722.28;;;0.60;100.00
5350;BME280;2697;42.144;24.794;2023-02-13T06:39:23;152734.03;;;0.64;100.00
5350;BME280;2697;42.144;24.794;2023-02-13T06:41:48;152762.78;;;0.75;100.00
5350;BME280;2697;42.144;24.794;2023-02-13T06:44:14;152777.13;;;0.81;100.00
5350;BME280;2697;42.144;24.794;2023-02-13T06:46:39;152792.81;;;0.87;100.00
5350;BME280;2697;42.144;24.794;2023-02-13T06:49:04;152882.94;;;1.22;100.00
5350;BME280;2697;42.144;24.794;2023-02-13T06:51:30;152978.34;;;1.59;100.00
5350;BME280;2697;42.144;24.794;2023-02-13T06:53:55;152978.34;;;1.59;100.00
5350;BME280;2697;42.144;24.794;2023-02-13T06:56:20;152946.94;;;1.47;100.00
5350;BME280;2697;42.144;24.794;2023-02-13T06:58:46;152950.84;;;1.49;100.00
5350;BME280;2697;42.144;24.794;2023-02-13T07:01:11;152979.63;;;1.60;100.00
5350;BME280;2697;42.144;24.794;2023-02-13T07:03:36;153051.53;;;1.88;100.00
5350;BME280;2697;42.144;24.794;2023-02-13T07:06:02;153089.41;;;2.03;100.00
5350;BME280;2697;42.144;24.794;2023-02-13T07:08:27;153146.97;;;2.25;100.00
5350;BME280;2697;42.144;24.794;2023-02-13T07:10:53;153175.72;;;2.36;100.00
5350;BME280;2697;42.144;24.794;2023-02-13T07:13:18;153174.41;;;2.36;100.00
5350;BME280;2697;42.144;24.794;2023-02-13T07:15:44;153191.44;;;2.42;100.00
5350;BME280;2697;42.144;24.794;2023-02-13T07:18:09;153186.16;;;2.40;100.00
5350;BME280;2697;42.144;24.794;2023-02-13T07:20:35;153269.91;;;2.73;100.00
5350;BME280;2697;42.144;24.794;2023-02-13T07:23:02;153293.44;;;2.82;100.00
5350;BME280;2697;42.144;24.794;2023-02-13T07:25:28;153330.06;;;2.96;100.00
5350;BME280;2697;42.144;24.794;2023-02-13T07:27:54;153353.59;;;3.05;100.00
5350;BME280;2697;42.144;24.794;2023-02-13T07:30:19;153382.44;;;3.17;100.00
5350;BME280;2697;42.144;24.794;2023-02-13T07:32:45;153377.16;;;3.14;100.00
5350;BME280;2697;42.144;24.794;2023-02-13T07:35:10;153408.59;;;3.27;100.00
5350;BME280;2697;42.144;24.794;2023-02-13T07:37:36;153510.69;;;3.66;100.00
5350;BME280;2697;42.144;24.794;2023-02-13T07:40:02;153479.28;;;3.54;100.00
5350;BME280;2697;42.144;24.794;2023-02-13T07:42:31;153449.13;;;3.42;100.00
5350;BME280;2697;42.144;24.794;2023-02-13T07:44:57;153487.13;;;3.57;100.00
5350;BME280;2697;42.144;24.794;2023-02-13T07:47:22;153509.38;;;3.66;100.00
5350;BME280;2697;42.144;24.794;2023-02-13T07:49:48;153551.28;;;3.82;100.00
5350;BME280;2697;42.144;24.794;2023-02-13T07:52:13;153566.97;;;3.88;100.00
5350;BME280;2697;42.144;24.794;2023-02-13T07:54:39;153557.81;;;3.85;100.00
5350;BME280;2697;42.144;24.794;2023-02-13T07:57:12;153595.78;;;3.99;100.00
5350;BME280;2697;42.144;24.794;2023-02-13T07:59:37;153633.78;;;4.14;100.00
5350;BME280;2697;42.144;24.794;2023-02-13T08:02:03;153593.16;;;3.98;100.00
5350;BME280;2697;42.144;24.794;2023-02-13T08:04:28;153601.06;;;4.02;100.00
5350;BME280;2697;42.144;24.794;2023-02-13T08:06:53;153639.00;;;4.16;100.00
5350;BME280;2697;42.144;24.794;2023-02-13T08:09:19;153656.03;;;4.23;100.00
5350;BME280;2697;42.144;24.794;2023-02-13T08:12:06;153624.63;;;4.11;100.00
5350;BME280;2697;42.144;24.794;2023-02-13T08:14:32;153657.34;;;4.23;100.00
5350;BME280;2697;42.144;24.794;2023-02-13T08:16:58;153656.03;;;4.23;100.00
5350;BME280;2697;42.144;24.794;2023-02-13T08:19:25;153732.03;;;4.52;100.00
5350;BME280;2697;42.144;24.794;2023-02-13T08:21:50;153737.25;;;4.54;100.00
5350;BME280;2697;42.144;24.794;2023-02-13T08:24:15;153785.72;;;4.73;100.00
5350;BME280;2697;42.144;24.794;2023-02-13T08:26:41;153772.66;;;4.68;100.00
5350;BME280;2697;42.144;24.794;2023-02-13T08:29:07;153785.72;;;4.73;100.00
5350;BME280;2697;42.144;24.794;2023-02-13T08:31:34;153811.94;;;4.83;100.00
5350;BME280;2697;42.144;24.794;2023-02-13T08:34:00;153867.00;;;5.05;99.70
5350;BME280;2697;42.144;24.794;2023-02-13T08:36:25;153861.78;;;5.03;97.11
5350;BME280;2697;42.144;24.794;2023-02-13T08:38:51;153848.66;;;4.98;95.60
5350;BME280;2697;42.144;24.794;2023-02-13T08:41:16;153897.16;;;5.17;95.45
5350;BME280;2697;42.144;24.794;2023-02-13T08:43:43;153916.81;;;5.24;94.80
5350;BME280;2697;42.144;24.794;2023-02-13T08:46:08;153970.56;;;5.45;93.75
5350;BME280;2697;42.144;24.794;2023-02-13T08:48:34;153932.53;;;5.30;92.27
5350;BME280;2697;42.144;24.794;2023-02-13T08:50:59;153971.88;;;5.46;93.09
5350;BME280;2697;42.144;24.794;2023-02-13T08:53:25;153943.03;;;5.34;92.11
5350;BME280;2697;42.144;24.794;2023-02-13T08:55:54;153964.03;;;5.42;93.43
5350;BME280;2697;42.144;24.794;2023-02-13T08:58:20;153988.94;;;5.52;93.41
5350;BME280;2697;42.144;24.794;2023-02-13T09:00:46;154045.31;;;5.74;90.80
5350;BME280;2697;42.144;24.794;2023-02-13T09:03:11;154021.69;;;5.65;90.71
5350;BME280;2697;42.144;24.794;2023-02-13T09:05:38;154075.47;;;5.86;89.59
5350;BME280;2697;42.144;24.794;2023-02-13T09:08:03;154016.47;;;5.63;88.22
5350;BME280;2697;42.144;24.794;2023-02-13T09:10:29;154037.47;;;5.71;88.18
5350;BME280;2697;42.144;24.794;2023-02-13T09:12:55;154101.78;;;5.96;86.53
5350;BME280;2697;42.144;24.794;2023-02-13T09:15:20;154100.44;;;5.95;85.91
5350;BME280;2697;42.144;24.794;2023-02-13T09:17:45;154112.25;;;6.00;86.61
5350;BME280;2697;42.144;24.794;2023-02-13T09:20:11;154124.03;;;6.05;84.67
5350;BME280;2697;42.144;24.794;2023-02-13T09:22:38;154150.34;;;6.15;85.08
5350;BME280;2697;42.144;24.794;2023-02-13T09:25:04;154172.59;;;6.23;83.58
5350;BME280;2697;42.144;24.794;2023-02-13T09:27:30;154179.19;;;6.26;83.98
5350;BME280;2697;42.144;24.794;2023-02-13T09:29:55;154172.59;;;6.23;83.50
5350;BME280;2697;42.144;24.794;2023-02-13T09:32:20;154236.91;;;6.48;82.60
5350;BME280;2697;42.144;24.794;2023-02-13T09:34:46;154242.16;;;6.50;82.48
5350;BME280;2697;42.144;24.794;2023-02-13T09:37:11;154259.22;;;6.57;82.24
5350;BME280;2697;42.144;24.794;2023-02-13T09:39:36;154221.19;;;6.42;81.82
5350;BME280;2697;42.144;24.794;2023-02-13T09:42:05;154242.16;;;6.50;82.51
5350;BME280;2697;42.144;24.794;2023-02-13T09:44:40;154336.66;;;6.87;80.31
5350;BME280;2697;42.144;24.794;2023-02-13T09:47:29;154347.19;;;6.91;80.20
5350;BME280;2697;42.144;24.794;2023-02-13T09:52:34;154328.78;;;6.84;77.69
5350;BME280;2697;42.144;24.794;2023-02-13T09:55:01;154349.81;;;6.92;78.12
5350;BME280;2697;42.144;24.794;2023-02-13T09:57:32;154376.06;;;7.02;76.11
5350;BME280;2697;42.144;24.794;2023-02-13T10:08:03;154487.69;;;7.46;73.86
5350;BME280;2697;42.144;24.794;2023-02-13T10:13:25;154531.00;;;7.62;74.42
5350;BME280;2697;42.144;24.794;2023-02-13T10:16:02;154523.13;;;7.59;73.24
5350;BME280;2697;42.144;24.794;2023-02-13T10:19:00;154565.19;;;7.76;71.75
5350;BME280;2697;42.144;24.794;2023-02-13T10:21:33;154557.31;;;7.72;71.89
5350;BME280;2697;42.144;24.794;2023-02-13T10:24:08;154566.50;;;7.76;72.36
5350;BME280;2697;42.144;24.794;2023-02-13T10:26:38;154594.06;;;7.87;71.08
5350;BME280;2697;42.144;24.794;2023-02-13T10:29:40;154625.59;;;7.99;70.52
5350;BME280;2697;42.144;24.794;2023-02-13T10:32:57;154700.50;;;8.28;68.82
5350;BME280;2697;42.144;24.794;2023-02-13T10:35:45;154701.84;;;8.28;68.50
5350;BME280;2697;42.144;24.794;2023-02-13T10:38:20;154699.19;;;8.27;66.81
5350;BME280;2697;42.144;24.794;2023-02-13T10:43:26;154771.53;;;8.55;65.28
5350;BME280;2697;42.144;24.794;2023-02-13T10:51:55;154750.53;;;8.47;61.79
5350;BME280;2697;42.144;24.794;2023-02-13T10:57:21;154814.94;;;8.72;61.41
5350;BME280;2697;42.144;24.794;2023-02-13T10:59:56;154812.31;;;8.71;60.66
5350;BME280;2697;42.144;24.794;2023-02-13T11:02:28;154828.09;;;8.77;61.29
5350;BME280;2697;42.144;24.794;2023-02-13T11:04:59;154854.38;;;8.88;60.59
5350;BME280;2697;42.144;24.794;2023-02-13T11:07:27;154863.56;;;8.91;59.93
5350;BME280;2697;42.144;24.794;2023-02-13T11:09:58;154917.53;;;9.12;60.81
5350;BME280;2697;42.144;24.794;2023-02-13T11:12:31;154928.03;;;9.16;58.95
5350;BME280;2697;42.144;24.794;2023-02-13T11:17:26;154933.28;;;9.18;56.95
5350;BME280;2697;42.144;24.794;2023-02-13T11:19:58;154964.84;;;9.30;56.86
5350;BME280;2697;42.144;24.794;2023-02-13T11:22:31;154996.44;;;9.42;56.94
5350;BME280;2697;42.144;24.794;2023-02-13T11:25:24;155010.88;;;9.48;56.63
5350;BME280;2697;42.144;24.794;2023-02-13T11:28:03;155020.13;;;9.52;55.67
5350;BME280;2697;42.144;24.794;2023-02-13T11:30:34;155071.44;;;9.71;54.47
5350;BME280;2697;42.144;24.794;2023-02-13T11:33:04;155056.94;;;9.66;54.65
5350;BME280;2697;42.144;24.794;2023-02-13T11:35:32;154988.50;;;9.39;54.18
5350;BME280;2697;42.144;24.794;2023-02-13T11:40:47;155124.06;;;9.92;52.58
5350;BME280;2697;42.144;24.794;2023-02-13T11:43:35;155133.25;;;9.95;52.99
5350;BME280;2697;42.144;24.794;2023-02-13T11:46:12;155092.50;;;9.80;52.46
5350;BME280;2697;42.144;24.794;2023-02-13T11:48:40;155118.81;;;9.90;53.64
5350;BME280;2697;42.144;24.794;2023-02-13T11:51:07;155135.94;;;9.96;53.19
5350;BME280;2697;42.144;24.794;2023-02-13T11:53:38;155151.69;;;10.03;51.83
5350;BME280;2697;42.144;24.794;2023-02-13T11:58:35;155180.63;;;10.14;50.70
5350;BME280;2697;42.144;24.794;2023-02-13T12:04:15;155218.88;;;10.28;49.52
5350;BME280;2697;42.144;24.794;2023-02-13T12:06:56;155204.38;;;10.23;49.80
5350;BME280;2697;42.144;24.794;2023-02-13T12:09:22;155207.06;;;10.24;48.95
5350;BME280;2697;42.144;24.794;2023-02-13T12:11:50;155176.69;;;10.12;49.13
5350;BME280;2697;42.144;24.794;2023-02-13T12:14:20;155203.06;;;10.22;48.62
5350;BME280;2697;42.144;24.794;2023-02-13T12:16:53;155185.94;;;10.16;48.62
5350;BME280;2697;42.144;24.794;2023-02-13T12:19:24;155164.88;;;10.08;48.91
5350;BME280;2697;42.144;24.794;2023-02-13T12:36:00;155351.91;;;10.80;46.63
5350;BME280;2697;42.144;24.794;2023-02-13T12:41:37;155363.72;;;10.84;47.19
5350;BME280;2697;42.144;24.794;2023-02-13T12:47:37;155343.97;;;10.77;45.47
5350;BME280;2697;42.144;24.794;2023-02-13T13:01:35;155329.50;;;10.71;45.29
5350;BME280;2697;42.144;24.794;2023-02-13T13:04:16;155349.22;;;10.79;45.64
5350;BME280;2697;42.144;24.794;2023-02-13T13:15:00;155386.13;;;10.93;45.12
5350;BME280;2697;42.144;24.794;2023-02-13T13:21:02;155412.47;;;11.03;43.60
5350;BME280;2697;42.144;24.794;2023-02-13T13:23:49;155397.94;;;10.98;43.83
5350;BME280;2697;42.144;24.794;2023-02-13T13:28:53;155341.34;;;10.76;44.11
5350;BME280;2697;42.144;24.794;2023-02-13T13:31:21;155383.50;;;10.92;44.35
5350;BME280;2697;42.144;24.794;2023-02-13T13:33:50;155336.06;;;10.74;43.78
5350;BME280;2697;42.144;24.794;2023-02-13T13:36:45;155333.44;;;10.73;43.77
5350;BME280;2697;42.144;24.794;2023-02-13T13:42:17;155333.44;;;10.73;43.67
5350;BME280;2697;42.144;24.794;2023-02-13T13:49:51;155372.94;;;10.88;44.45
5350;BME280;2697;42.144;24.794;2023-02-13T13:52:34;155372.94;;;10.88;43.49
5350;BME280;2697;42.144;24.794;2023-02-13T13:55:04;155350.53;;;10.79;43.51
5350;BME280;2697;42.144;24.794;2023-02-13T14:03:12;155275.47;;;10.50;43.92
5350;BME280;2697;42.144;24.794;2023-02-13T14:05:58;155289.97;;;10.56;43.75
5350;BME280;2697;42.144;24.794;2023-02-13T14:11:40;155291.28;;;10.56;43.39
5350;BME280;2697;42.144;24.794;2023-02-13T14:16:55;155217.56;;;10.28;43.95
5350;BME280;2697;42.144;24.794;2023-02-13T14:21:49;155267.59;;;10.47;43.69
5350;BME280;2697;42.144;24.794;2023-02-13T14:24:17;155288.66;;;10.55;43.84
5350;BME280;2697;42.144;24.794;2023-02-13T14:26:50;155264.97;;;10.46;43.59
5350;BME280;2697;42.144;24.794;2023-02-13T14:29:29;155234.69;;;10.35;44.18
5350;BME280;2697;42.144;24.794;2023-02-13T14:32:02;155220.19;;;10.29;44.09
5350;BME280;2697;42.144;24.794;2023-02-13T14:34:31;155187.25;;;10.16;44.23
5350;BME280;2697;42.144;24.794;2023-02-13T14:37:19;155201.75;;;10.22;44.31
5350;BME280;2697;42.144;24.794;2023-02-13T14:42:47;155167.50;;;10.09;44.47
5350;BME280;2697;42.144;24.794;2023-02-13T14:45:23;155141.19;;;9.98;44.85
5350;BME280;2697;42.144;24.794;2023-02-13T14:47:53;155179.31;;;10.13;44.63
5350;BME280;2697;42.144;24.794;2023-02-13T14:50:43;155151.69;;;10.03;44.28
5350;BME280;2697;42.144;24.794;2023-02-13T14:53:26;155172.75;;;10.11;44.23
5350;BME280;2697;42.144;24.794;2023-02-13T14:56:22;155154.31;;;10.04;44.58
5350;BME280;2697;42.144;24.794;2023-02-13T14:59:05;155141.19;;;9.98;44.88
5350;BME280;2697;42.144;24.794;2023-02-13T15:02:17;155101.69;;;9.83;45.19
5350;BME280;2697;42.144;24.794;2023-02-13T15:04:54;155059.56;;;9.67;44.93
5350;BME280;2697;42.144;24.794;2023-02-13T15:07:26;155014.88;;;9.50;45.49
5350;BME280;2697;42.144;24.794;2023-02-13T15:10:03;154956.97;;;9.27;46.64
5350;BME280;2697;42.144;24.794;2023-02-13T15:12:33;154909.59;;;9.09;46.59
5350;BME280;2697;42.144;24.794;2023-02-13T15:15:00;154900.41;;;9.05;47.31
5350;BME280;2697;42.144;24.794;2023-02-13T15:17:28;154906.97;;;9.08;47.22
5350;BME280;2697;42.144;24.794;2023-02-13T15:20:07;154912.22;;;9.10;47.16
5350;BME280;2697;42.144;24.794;2023-02-13T15:22:45;154862.25;;;8.91;47.47
5350;BME280;2697;42.144;24.794;2023-02-13T15:25:32;154833.34;;;8.79;47.96
5350;BME280;2697;42.144;24.794;2023-02-13T15:27:58;154821.53;;;8.75;47.61
5350;BME280;2697;42.144;24.794;2023-02-13T15:30:27;154801.81;;;8.67;47.76
5350;BME280;2697;42.144;24.794;2023-02-13T15:33:01;154759.72;;;8.51;48.18
5350;BME280;2697;42.144;24.794;2023-02-13T15:35:30;154688.69;;;8.23;49.15
5350;BME280;2697;42.144;24.794;2023-02-13T15:37:57;154642.69;;;8.06;49.39
5350;BME280;2697;42.144;24.794;2023-02-13T15:40:29;154620.34;;;7.97;49.85
5350;BME280;2697;42.144;24.794;2023-02-13T15:42:56;154595.38;;;7.87;50.29
5350;BME280;2697;42.144;24.794;2023-02-13T15:45:24;154549.41;;;7.69;50.80
5350;BME280;2697;42.144;24.794;2023-02-13T15:47:50;154487.69;;;7.46;51.44
5350;BME280;2697;42.144;24.794;2023-02-13T15:52:43;154446.97;;;7.30;52.00
5350;BME280;2697;42.144;24.794;2023-02-13T15:55:24;154457.44;;;7.34;52.21
5350;BME280;2697;42.144;24.794;2023-02-13T15:57:53;154423.31;;;7.21;52.43
5350;BME280;2697;42.144;24.794;2023-02-13T16:02:50;154401.00;;;7.12;52.78